sensor_id;sensor_type;location;lat;lon;timestamp;P1;durP1;ratioP1;P2;durP2;ratioP2
6755;SDS011;3415;51.148;7.014;2023-04-12T00:00:06;1.20;;;0.70;;
6755;SDS011;3415;51.148;7.014;2023-04-12T00:02:35;5.17;;;1.57;;
6755;SDS011;3415;51.148;7.014;2023-04-12T00:05:04;3.83;;;1.37;;
6755;SDS011;3415;51.148;7.014;2023-04-12T00:07:33;2.00;;;1.03;;
6755;SDS011;3415;51.148;7.014;2023-04-12T00:10:02;1.53;;;1.10;;
6755;SDS011;3415;51.148;7.014;2023-04-12T00:12:30;3.27;;;1.50;;
6755;SDS011;3415;51.148;7.014;2023-04-12T00:14:57;9.00;;;1.23;;
6755;SDS011;3415;51.148;7.014;2023-04-12T00:17:25;4.40;;;1.30;;
6755;SDS011;3415;51.148;7.014;2023-04-12T00:19:52;4.77;;;1.27;;
6755;SDS011;3415;51.148;7.014;2023-04-12T00:22:20;3.20;;;1.40;;
6755;SDS011;3415;51.148;7.014;2023-04-12T00:24:47;8.27;;;1.83;;
6755;SDS011;3415;51.148;7.014;2023-04-12T00:27:13;6.87;;;1.60;;
6755;SDS011;3415;51.148;7.014;2023-04-12T00:29:40;5.97;;;1.70;;
6755;SDS011;3415;51.148;7.014;2023-04-12T00:32:07;3.63;;;1.40;;
6755;SDS011;3415;51.148;7.014;2023-04-12T00:34:34;11.13;;;1.73;;
6755;SDS011;3415;51.148;7.014;2023-04-12T00:37:01;6.90;;;1.50;;
6755;SDS011;3415;51.148;7.014;2023-04-12T00:39:29;6.43;;;1.50;;
6755;SDS011;3415;51.148;7.014;2023-04-12T00:41:56;6.97;;;1.20;;
6755;SDS011;3415;51.148;7.014;2023-04-12T00:44:23;15.23;;;1.23;;
6755;SDS011;3415;51.148;7.014;2023-04-12T00:46:49;2.57;;;1.40;;
6755;SDS011;3415;51.148;7.014;2023-04-12T00:49:16;3.00;;;1.17;;
6755;SDS011;3415;51.148;7.014;2023-04-12T00:51:43;6.00;;;1.63;;
6755;SDS011;3415;51.148;7.014;2023-04-12T00:54:11;3.60;;;1.60;;
6755;SDS011;3415;51.148;7.014;2023-04-12T00:56:43;5.87;;;1.20;;
6755;SDS011;3415;51.148;7.014;2023-04-12T00:59:11;3.83;;;1.73;;
6755;SDS011;3415;51.148;7.014;2023-04-12T01:01:38;3.77;;;1.37;;
6755;SDS011;3415;51.148;7.014;2023-04-12T01:04:05;2.93;;;1.57;;
6755;SDS011;3415;51.148;7.014;2023-04-12T01:06:36;4.30;;;1.30;;
6755;SDS011;3415;51.148;7.014;2023-04-12T01:09:14;7.73;;;1.30;;
6755;SDS011;3415;51.148;7.014;2023-04-12T01:11:50;4.87;;;1.60;;
6755;SDS011;3415;51.148;7.014;2023-04-12T01:14:28;5.50;;;1.40;;
6755;SDS011;3415;51.148;7.014;2023-04-12T01:17:02;2.47;;;1.43;;
6755;SDS011;3415;51.148;7.014;2023-04-12T01:19:40;3.07;;;1.37;;
6755;SDS011;3415;51.148;7.014;2023-04-12T01:22:22;6.30;;;1.47;;
6755;SDS011;3415;51.148;7.014;2023-04-12T01:25:15;11.83;;;2.10;;
6755;SDS011;3415;51.148;7.014;2023-04-12T01:27:53;6.13;;;1.63;;
6755;SDS011;3415;51.148;7.014;2023-04-12T01:30:22;2.90;;;1.27;;
6755;SDS011;3415;51.148;7.014;2023-04-12T01:32:53;2.43;;;1.47;;
6755;SDS011;3415;51.148;7.014;2023-04-12T01:35:23;5.00;;;1.90;;
6755;SDS011;3415;51.148;7.014;2023-04-12T01:37:53;2.97;;;1.73;;
6755;SDS011;3415;51.148;7.014;2023-04-12T01:40:21;4.30;;;1.60;;
6755;SDS011;3415;51.148;7.014;2023-04-12T01:42:48;5.67;;;1.67;;
6755;SDS011;3415;51.148;7.014;2023-04-12T01:45:16;2.47;;;1.17;;
6755;SDS011;3415;51.148;7.014;2023-04-12T01:47:43;3.60;;;1.30;;
6755;SDS011;3415;51.148;7.014;2023-04-12T01:50:12;5.53;;;1.30;;
6755;SDS011;3415;51.148;7.014;2023-04-12T01:52:48;2.20;;;1.40;;
6755;SDS011;3415;51.148;7.014;2023-04-12T01:55:22;7.90;;;1.27;;
6755;SDS011;3415;51.148;7.014;2023-04-12T01:57:53;1.70;;;0.90;;
6755;SDS011;3415;51.148;7.014;2023-04-12T02:00:22;2.47;;;1.20;;
6755;SDS011;3415;51.148;7.014;2023-04-12T02:02:50;4.50;;;1.73;;
6755;SDS011;3415;51.148;7.014;2023-04-12T02:05:17;4.70;;;1.27;;
6755;SDS011;3415;51.148;7.014;2023-04-12T02:07:45;6.70;;;1.60;;
6755;SDS011;3415;51.148;7.014;2023-04-12T02:10:14;3.30;;;1.43;;
6755;SDS011;3415;51.148;7.014;2023-04-12T02:12:41;4.87;;;1.70;;
6755;SDS011;3415;51.148;7.014;2023-04-12T02:15:08;3.97;;;1.30;;
6755;SDS011;3415;51.148;7.014;2023-04-12T02:17:36;1.93;;;1.30;;
6755;SDS011;3415;51.148;7.014;2023-04-12T02:20:05;2.77;;;1.70;;
6755;SDS011;3415;51.148;7.014;2023-04-12T02:22:33;5.07;;;1.90;;
6755;SDS011;3415;51.148;7.014;2023-04-12T02:25:00;8.63;;;1.60;;
6755;SDS011;3415;51.148;7.014;2023-04-12T02:27:30;2.73;;;1.20;;
6755;SDS011;3415;51.148;7.014;2023-04-12T02:29:57;4.77;;;1.20;;
6755;SDS011;3415;51.148;7.014;2023-04-12T02:32:24;1.93;;;1.30;;
6755;SDS011;3415;51.148;7.014;2023-04-12T02:34:52;7.73;;;1.10;;
6755;SDS011;3415;51.148;7.014;2023-04-12T02:37:19;2.43;;;1.23;;
6755;SDS011;3415;51.148;7.014;2023-04-12T02:39:48;5.93;;;1.33;;
6755;SDS011;3415;51.148;7.014;2023-04-12T02:42:15;2.87;;;1.20;;
6755;SDS011;3415;51.148;7.014;2023-04-12T02:44:41;5.40;;;1.73;;
6755;SDS011;3415;51.148;7.014;2023-04-12T02:47:11;3.10;;;1.10;;
6755;SDS011;3415;51.148;7.014;2023-04-12T02:49:38;4.80;;;1.50;;
6755;SDS011;3415;51.148;7.014;2023-04-12T02:52:07;4.23;;;1.57;;
6755;SDS011;3415;51.148;7.014;2023-04-12T02:54:34;2.00;;;1.10;;
6755;SDS011;3415;51.148;7.014;2023-04-12T02:57:01;3.37;;;1.90;;
6755;SDS011;3415;51.148;7.014;2023-04-12T02:59:28;3.43;;;1.70;;
6755;SDS011;3415;51.148;7.014;2023-04-12T03:01:55;3.33;;;1.03;;
6755;SDS011;3415;51.148;7.014;2023-04-12T03:04:22;2.97;;;1.17;;
6755;SDS011;3415;51.148;7.014;2023-04-12T03:06:53;2.87;;;1.37;;
6755;SDS011;3415;51.148;7.014;2023-04-12T03:09:22;3.00;;;1.30;;
6755;SDS011;3415;51.148;7.014;2023-04-12T03:11:49;3.63;;;1.47;;
6755;SDS011;3415;51.148;7.014;2023-04-12T03:14:16;5.30;;;1.77;;
6755;SDS011;3415;51.148;7.014;2023-04-12T03:16:42;1.60;;;0.80;;
6755;SDS011;3415;51.148;7.014;2023-04-12T03:19:09;3.10;;;1.50;;
6755;SDS011;3415;51.148;7.014;2023-04-12T03:21:37;3.83;;;1.50;;
6755;SDS011;3415;51.148;7.014;2023-04-12T03:24:04;6.20;;;1.47;;
6755;SDS011;3415;51.148;7.014;2023-04-12T03:26:32;3.27;;;1.20;;
6755;SDS011;3415;51.148;7.014;2023-04-12T03:28:59;5.27;;;2.10;;
6755;SDS011;3415;51.148;7.014;2023-04-12T03:31:29;2.70;;;1.10;;
6755;SDS011;3415;51.148;7.014;2023-04-12T03:33:56;3.93;;;1.33;;
6755;SDS011;3415;51.148;7.014;2023-04-12T03:36:22;14.13;;;1.57;;
6755;SDS011;3415;51.148;7.014;2023-04-12T03:38:51;12.67;;;1.87;;
6755;SDS011;3415;51.148;7.014;2023-04-12T03:41:17;3.40;;;1.20;;
6755;SDS011;3415;51.148;7.014;2023-04-12T03:43:48;8.37;;;1.47;;
6755;SDS011;3415;51.148;7.014;2023-04-12T03:46:15;5.30;;;2.30;;
6755;SDS011;3415;51.148;7.014;2023-04-12T03:48:42;5.57;;;1.73;;
6755;SDS011;3415;51.148;7.014;2023-04-12T03:51:08;2.87;;;1.17;;
6755;SDS011;3415;51.148;7.014;2023-04-12T03:53:36;8.30;;;1.43;;
6755;SDS011;3415;51.148;7.014;2023-04-12T03:56:03;1.90;;;1.43;;
6755;SDS011;3415;51.148;7.014;2023-04-12T03:58:30;3.73;;;1.80;;
6755;SDS011;3415;51.148;7.014;2023-04-12T04:00:59;5.03;;;1.67;;
6755;SDS011;3415;51.148;7.014;2023-04-12T04:03:27;4.70;;;1.60;;
6755;SDS011;3415;51.148;7.014;2023-04-12T04:05:58;5.00;;;1.70;;
6755;SDS011;3415;51.148;7.014;2023-04-12T04:08:25;11.90;;;1.20;;
6755;SDS011;3415;51.148;7.014;2023-04-12T04:10:53;2.63;;;1.40;;
6755;SDS011;3415;51.148;7.014;2023-04-12T04:13:20;7.10;;;1.50;;
6755;SDS011;3415;51.148;7.014;2023-04-12T04:15:49;3.40;;;1.70;;
6755;SDS011;3415;51.148;7.014;2023-04-12T04:18:25;3.00;;;2.10;;
6755;SDS011;3415;51.148;7.014;2023-04-12T04:20:52;5.07;;;1.60;;
6755;SDS011;3415;51.148;7.014;2023-04-12T04:23:19;2.30;;;1.40;;
6755;SDS011;3415;51.148;7.014;2023-04-12T04:25:46;5.37;;;1.50;;
6755;SDS011;3415;51.148;7.014;2023-04-12T04:28:13;3.00;;;1.57;;
6755;SDS011;3415;51.148;7.014;2023-04-12T04:30:40;2.77;;;1.20;;
6755;SDS011;3415;51.148;7.014;2023-04-12T04:33:10;6.13;;;1.83;;
6755;SDS011;3415;51.148;7.014;2023-04-12T04:35:39;2.67;;;1.37;;
6755;SDS011;3415;51.148;7.014;2023-04-12T04:38:06;1.70;;;1.17;;
6755;SDS011;3415;51.148;7.014;2023-04-12T04:40:35;2.80;;;1.50;;
6755;SDS011;3415;51.148;7.014;2023-04-12T04:43:03;2.73;;;1.30;;
6755;SDS011;3415;51.148;7.014;2023-04-12T04:45:30;6.00;;;1.63;;
6755;SDS011;3415;51.148;7.014;2023-04-12T04:47:57;17.93;;;1.60;;
6755;SDS011;3415;51.148;7.014;2023-04-12T04:50:25;6.27;;;1.43;;
6755;SDS011;3415;51.148;7.014;2023-04-12T04:52:54;4.13;;;1.80;;
6755;SDS011;3415;51.148;7.014;2023-04-12T04:55:21;3.20;;;1.30;;
6755;SDS011;3415;51.148;7.014;2023-04-12T04:57:48;5.33;;;1.87;;
6755;SDS011;3415;51.148;7.014;2023-04-12T05:00:16;2.00;;;1.50;;
6755;SDS011;3415;51.148;7.014;2023-04-12T05:02:43;2.90;;;1.40;;
6755;SDS011;3415;51.148;7.014;2023-04-12T05:05:10;2.00;;;1.30;;
6755;SDS011;3415;51.148;7.014;2023-04-12T05:07:38;2.20;;;1.50;;
6755;SDS011;3415;51.148;7.014;2023-04-12T05:10:07;3.83;;;1.23;;
6755;SDS011;3415;51.148;7.014;2023-04-12T05:12:35;1.80;;;1.30;;
6755;SDS011;3415;51.148;7.014;2023-04-12T05:15:03;10.83;;;1.87;;
6755;SDS011;3415;51.148;7.014;2023-04-12T05:17:30;3.30;;;1.50;;
6755;SDS011;3415;51.148;7.014;2023-04-12T05:19:58;1.40;;;0.80;;
6755;SDS011;3415;51.148;7.014;2023-04-12T05:22:25;4.17;;;1.53;;
6755;SDS011;3415;51.148;7.014;2023-04-12T05:24:53;4.80;;;1.60;;
6755;SDS011;3415;51.148;7.014;2023-04-12T05:27:22;2.00;;;1.30;;
6755;SDS011;3415;51.148;7.014;2023-04-12T05:29:50;5.93;;;1.57;;
6755;SDS011;3415;51.148;7.014;2023-04-12T05:32:17;3.67;;;1.73;;
6755;SDS011;3415;51.148;7.014;2023-04-12T05:34:44;9.97;;;1.77;;
6755;SDS011;3415;51.148;7.014;2023-04-12T05:37:11;3.83;;;1.50;;
6755;SDS011;3415;51.148;7.014;2023-04-12T05:39:38;3.10;;;1.63;;
6755;SDS011;3415;51.148;7.014;2023-04-12T05:42:05;3.10;;;1.43;;
6755;SDS011;3415;51.148;7.014;2023-04-12T05:44:34;6.10;;;1.23;;
6755;SDS011;3415;51.148;7.014;2023-04-12T05:47:01;2.47;;;1.50;;
6755;SDS011;3415;51.148;7.014;2023-04-12T05:49:28;3.53;;;1.20;;
6755;SDS011;3415;51.148;7.014;2023-04-12T05:51:55;2.37;;;1.80;;
6755;SDS011;3415;51.148;7.014;2023-04-12T05:54:22;2.80;;;1.10;;
6755;SDS011;3415;51.148;7.014;2023-04-12T05:56:49;2.80;;;1.30;;
6755;SDS011;3415;51.148;7.014;2023-04-12T05:59:16;2.80;;;1.43;;
6755;SDS011;3415;51.148;7.014;2023-04-12T06:01:45;2.23;;;1.40;;
6755;SDS011;3415;51.148;7.014;2023-04-12T06:04:12;2.50;;;1.20;;
6755;SDS011;3415;51.148;7.014;2023-04-12T06:06:39;3.53;;;1.60;;
6755;SDS011;3415;51.148;7.014;2023-04-12T06:09:07;2.83;;;1.50;;
6755;SDS011;3415;51.148;7.014;2023-04-12T06:11:35;1.93;;;1.30;;
6755;SDS011;3415;51.148;7.014;2023-04-12T06:14:03;4.03;;;1.83;;
6755;SDS011;3415;51.148;7.014;2023-04-12T06:16:30;3.93;;;1.60;;
6755;SDS011;3415;51.148;7.014;2023-04-12T06:18:58;2.40;;;1.40;;
6755;SDS011;3415;51.148;7.014;2023-04-12T06:21:25;2.70;;;1.53;;
6755;SDS011;3415;51.148;7.014;2023-04-12T06:23:52;6.30;;;1.40;;
6755;SDS011;3415;51.148;7.014;2023-04-12T06:26:18;2.00;;;1.10;;
6755;SDS011;3415;51.148;7.014;2023-04-12T06:28:45;3.27;;;1.70;;
6755;SDS011;3415;51.148;7.014;2023-04-12T06:31:14;1.93;;;1.30;;
6755;SDS011;3415;51.148;7.014;2023-04-12T06:33:41;3.80;;;1.87;;
6755;SDS011;3415;51.148;7.014;2023-04-12T06:36:09;3.93;;;1.67;;
6755;SDS011;3415;51.148;7.014;2023-04-12T06:38:36;4.80;;;1.50;;
6755;SDS011;3415;51.148;7.014;2023-04-12T06:41:04;3.10;;;1.40;;
6755;SDS011;3415;51.148;7.014;2023-04-12T06:43:31;2.17;;;1.57;;
6755;SDS011;3415;51.148;7.014;2023-04-12T06:45:58;3.83;;;1.47;;
6755;SDS011;3415;51.148;7.014;2023-04-12T06:48:27;1.83;;;1.20;;
6755;SDS011;3415;51.148;7.014;2023-04-12T06:50:54;3.50;;;1.60;;
6755;SDS011;3415;51.148;7.014;2023-04-12T06:53:22;5.37;;;1.40;;
6755;SDS011;3415;51.148;7.014;2023-04-12T06:55:49;1.93;;;1.00;;
6755;SDS011;3415;51.148;7.014;2023-04-12T06:58:17;1.60;;;1.00;;
6755;SDS011;3415;51.148;7.014;2023-04-12T07:00:45;6.57;;;1.50;;
6755;SDS011;3415;51.148;7.014;2023-04-12T07:03:13;5.40;;;1.47;;
6755;SDS011;3415;51.148;7.014;2023-04-12T07:05:39;3.13;;;1.60;;
6755;SDS011;3415;51.148;7.014;2023-04-12T07:08:06;3.00;;;1.83;;
6755;SDS011;3415;51.148;7.014;2023-04-12T07:10:35;2.63;;;1.47;;
6755;SDS011;3415;51.148;7.014;2023-04-12T07:13:02;6.90;;;1.50;;
6755;SDS011;3415;51.148;7.014;2023-04-12T07:15:32;3.37;;;1.43;;
6755;SDS011;3415;51.148;7.014;2023-04-12T07:17:59;3.63;;;1.57;;
6755;SDS011;3415;51.148;7.014;2023-04-12T07:20:26;1.87;;;0.90;;
6755;SDS011;3415;51.148;7.014;2023-04-12T07:22:53;7.03;;;1.83;;
6755;SDS011;3415;51.148;7.014;2023-04-12T07:25:20;5.27;;;1.40;;
6755;SDS011;3415;51.148;7.014;2023-04-12T07:27:48;2.47;;;1.30;;
6755;SDS011;3415;51.148;7.014;2023-04-12T07:30:16;1.93;;;1.23;;
6755;SDS011;3415;51.148;7.014;2023-04-12T07:32:43;3.27;;;1.83;;
6755;SDS011;3415;51.148;7.014;2023-04-12T07:35:10;2.47;;;1.30;;
6755;SDS011;3415;51.148;7.014;2023-04-12T07:37:36;1.63;;;1.10;;
6755;SDS011;3415;51.148;7.014;2023-04-12T07:40:04;2.90;;;1.37;;
6755;SDS011;3415;51.148;7.014;2023-04-12T07:42:31;2.80;;;1.60;;
6755;SDS011;3415;51.148;7.014;2023-04-12T07:45:00;1.80;;;1.00;;
6755;SDS011;3415;51.148;7.014;2023-04-12T07:47:26;2.43;;;1.13;;
6755;SDS011;3415;51.148;7.014;2023-04-12T07:49:53;2.43;;;1.30;;
6755;SDS011;3415;51.148;7.014;2023-04-12T07:52:21;2.13;;;1.00;;
6755;SDS011;3415;51.148;7.014;2023-04-12T07:54:49;2.57;;;1.47;;
6755;SDS011;3415;51.148;7.014;2023-04-12T07:57:16;2.00;;;1.03;;
6755;SDS011;3415;51.148;7.014;2023-04-12T07:59:43;2.07;;;1.00;;
6755;SDS011;3415;51.148;7.014;2023-04-12T08:02:11;3.97;;;1.60;;
6755;SDS011;3415;51.148;7.014;2023-04-12T08:04:38;1.73;;;1.10;;
6755;SDS011;3415;51.148;7.014;2023-04-12T08:07:08;3.83;;;1.37;;
6755;SDS011;3415;51.148;7.014;2023-04-12T08:09:40;2.23;;;1.23;;
6755;SDS011;3415;51.148;7.014;2023-04-12T08:12:07;2.90;;;1.20;;
6755;SDS011;3415;51.148;7.014;2023-04-12T08:14:35;3.53;;;1.13;;
6755;SDS011;3415;51.148;7.014;2023-04-12T08:17:02;2.70;;;1.67;;
6755;SDS011;3415;51.148;7.014;2023-04-12T08:19:31;2.83;;;1.53;;
6755;SDS011;3415;51.148;7.014;2023-04-12T08:21:59;7.10;;;1.37;;
6755;SDS011;3415;51.148;7.014;2023-04-12T08:24:26;2.17;;;1.30;;
6755;SDS011;3415;51.148;7.014;2023-04-12T08:26:53;1.90;;;1.10;;
6755;SDS011;3415;51.148;7.014;2023-04-12T08:29:20;1.80;;;0.93;;
6755;SDS011;3415;51.148;7.014;2023-04-12T08:31:47;2.53;;;1.30;;
6755;SDS011;3415;51.148;7.014;2023-04-12T08:34:14;1.70;;;1.20;;
6755;SDS011;3415;51.148;7.014;2023-04-12T08:36:42;2.67;;;1.47;;
6755;SDS011;3415;51.148;7.014;2023-04-12T08:39:09;2.47;;;1.10;;
6755;SDS011;3415;51.148;7.014;2023-04-12T08:41:36;1.90;;;1.03;;
6755;SDS011;3415;51.148;7.014;2023-04-12T08:44:04;2.57;;;1.13;;
6755;SDS011;3415;51.148;7.014;2023-04-12T08:46:31;2.23;;;1.10;;
6755;SDS011;3415;51.148;7.014;2023-04-12T08:49:01;2.10;;;1.20;;
6755;SDS011;3415;51.148;7.014;2023-04-12T08:51:27;1.70;;;1.30;;
6755;SDS011;3415;51.148;7.014;2023-04-12T08:53:56;2.93;;;2.17;;
6755;SDS011;3415;51.148;7.014;2023-04-12T08:56:24;1.53;;;0.90;;
6755;SDS011;3415;51.148;7.014;2023-04-12T08:58:50;1.67;;;1.00;;
6755;SDS011;3415;51.148;7.014;2023-04-12T09:01:18;2.03;;;1.20;;
6755;SDS011;3415;51.148;7.014;2023-04-12T09:03:46;1.57;;;1.10;;
6755;SDS011;3415;51.148;7.014;2023-04-12T09:06:13;3.57;;;1.43;;
6755;SDS011;3415;51.148;7.014;2023-04-12T09:08:49;2.33;;;1.10;;
6755;SDS011;3415;51.148;7.014;2023-04-12T09:11:22;3.10;;;1.27;;
6755;SDS011;3415;51.148;7.014;2023-04-12T09:13:51;1.40;;;0.90;;
6755;SDS011;3415;51.148;7.014;2023-04-12T09:16:32;1.47;;;0.97;;
6755;SDS011;3415;51.148;7.014;2023-04-12T09:18:59;2.63;;;1.20;;
6755;SDS011;3415;51.148;7.014;2023-04-12T09:21:27;4.13;;;1.07;;
6755;SDS011;3415;51.148;7.014;2023-04-12T09:24:01;4.10;;;1.20;;
6755;SDS011;3415;51.148;7.014;2023-04-12T09:26:31;3.20;;;1.60;;
6755;SDS011;3415;51.148;7.014;2023-04-12T09:28:58;2.77;;;1.63;;
6755;SDS011;3415;51.148;7.014;2023-04-12T09:31:25;1.50;;;0.90;;
6755;SDS011;3415;51.148;7.014;2023-04-12T09:33:52;1.77;;;1.03;;
6755;SDS011;3415;51.148;7.014;2023-04-12T09:36:35;1.80;;;1.10;;
6755;SDS011;3415;51.148;7.014;2023-04-12T09:39:02;2.17;;;1.37;;
6755;SDS011;3415;51.148;7.014;2023-04-12T09:41:30;2.03;;;1.27;;
6755;SDS011;3415;51.148;7.014;2023-04-12T09:43:58;1.60;;;1.20;;
6755;SDS011;3415;51.148;7.014;2023-04-12T09:46:26;2.03;;;1.20;;
6755;SDS011;3415;51.148;7.014;2023-04-12T09:48:53;3.23;;;1.47;;
6755;SDS011;3415;51.148;7.014;2023-04-12T09:51:23;2.40;;;1.53;;
6755;SDS011;3415;51.148;7.014;2023-04-12T09:53:52;2.03;;;1.17;;
6755;SDS011;3415;51.148;7.014;2023-04-12T09:56:21;1.87;;;1.10;;
6755;SDS011;3415;51.148;7.014;2023-04-12T09:58:51;1.87;;;1.20;;
6755;SDS011;3415;51.148;7.014;2023-04-12T10:01:18;2.20;;;1.40;;
6755;SDS011;3415;51.148;7.014;2023-04-12T10:03:47;1.60;;;0.90;;
6755;SDS011;3415;51.148;7.014;2023-04-12T10:06:15;3.47;;;1.40;;
6755;SDS011;3415;51.148;7.014;2023-04-12T10:08:43;2.13;;;1.40;;
6755;SDS011;3415;51.148;7.014;2023-04-12T10:11:11;2.00;;;1.30;;
6755;SDS011;3415;51.148;7.014;2023-04-12T10:13:38;1.93;;;1.50;;
6755;SDS011;3415;51.148;7.014;2023-04-12T10:16:08;2.43;;;1.40;;
6755;SDS011;3415;51.148;7.014;2023-04-12T10:18:36;4.20;;;1.40;;
6755;SDS011;3415;51.148;7.014;2023-04-12T10:21:04;2.57;;;1.67;;
6755;SDS011;3415;51.148;7.014;2023-04-12T10:23:32;1.90;;;1.37;;
6755;SDS011;3415;51.148;7.014;2023-04-12T10:25:59;2.50;;;1.50;;
6755;SDS011;3415;51.148;7.014;2023-04-12T10:28:29;3.17;;;1.60;;
6755;SDS011;3415;51.148;7.014;2023-04-12T10:30:56;2.67;;;1.40;;
6755;SDS011;3415;51.148;7.014;2023-04-12T10:33:25;3.20;;;1.77;;
6755;SDS011;3415;51.148;7.014;2023-04-12T10:35:54;3.57;;;2.17;;
6755;SDS011;3415;51.148;7.014;2023-04-12T10:38:24;2.80;;;1.50;;
6755;SDS011;3415;51.148;7.014;2023-04-12T10:41:05;2.07;;;1.30;;
6755;SDS011;3415;51.148;7.014;2023-04-12T10:43:35;3.60;;;2.10;;
6755;SDS011;3415;51.148;7.014;2023-04-12T10:46:02;3.80;;;1.00;;
6755;SDS011;3415;51.148;7.014;2023-04-12T10:48:32;2.20;;;1.60;;
6755;SDS011;3415;51.148;7.014;2023-04-12T10:53:49;2.50;;;1.73;;
6755;SDS011;3415;51.148;7.014;2023-04-12T10:56:35;2.10;;;1.53;;
6755;SDS011;3415;51.148;7.014;2023-04-12T10:59:03;2.77;;;1.77;;
6755;SDS011;3415;51.148;7.014;2023-04-12T11:01:31;4.57;;;1.93;;
6755;SDS011;3415;51.148;7.014;2023-04-12T11:04:16;2.63;;;1.40;;
6755;SDS011;3415;51.148;7.014;2023-04-12T11:06:48;1.60;;;1.00;;
6755;SDS011;3415;51.148;7.014;2023-04-12T11:09:27;1.87;;;1.10;;
6755;SDS011;3415;51.148;7.014;2023-04-12T11:12:09;3.40;;;1.37;;
6755;SDS011;3415;51.148;7.014;2023-04-12T11:14:43;1.40;;;1.00;;
6755;SDS011;3415;51.148;7.014;2023-04-12T11:17:18;1.90;;;1.30;;
6755;SDS011;3415;51.148;7.014;2023-04-12T11:19:51;4.80;;;1.40;;
6755;SDS011;3415;51.148;7.014;2023-04-12T11:22:20;2.47;;;1.50;;
6755;SDS011;3415;51.148;7.014;2023-04-12T11:24:49;2.23;;;1.23;;
6755;SDS011;3415;51.148;7.014;2023-04-12T11:27:18;4.37;;;1.60;;
6755;SDS011;3415;51.148;7.014;2023-04-12T11:29:47;2.87;;;2.10;;
6755;SDS011;3415;51.148;7.014;2023-04-12T11:32:15;2.80;;;1.87;;
6755;SDS011;3415;51.148;7.014;2023-04-12T11:34:44;12.53;;;4.23;;
6755;SDS011;3415;51.148;7.014;2023-04-12T11:37:13;3.90;;;2.33;;
6755;SDS011;3415;51.148;7.014;2023-04-12T11:39:41;4.40;;;2.37;;
6755;SDS011;3415;51.148;7.014;2023-04-12T11:42:13;4.37;;;1.80;;
6755;SDS011;3415;51.148;7.014;2023-04-12T11:44:41;4.10;;;2.70;;
6755;SDS011;3415;51.148;7.014;2023-04-12T11:47:12;6.90;;;2.90;;
6755;SDS011;3415;51.148;7.014;2023-04-12T11:49:44;8.07;;;3.23;;
6755;SDS011;3415;51.148;7.014;2023-04-12T11:52:15;4.23;;;2.73;;
6755;SDS011;3415;51.148;7.014;2023-04-12T11:54:44;4.40;;;2.60;;
6755;SDS011;3415;51.148;7.014;2023-04-12T11:57:12;7.60;;;3.73;;
6755;SDS011;3415;51.148;7.014;2023-04-12T11:59:42;6.43;;;3.50;;
6755;SDS011;3415;51.148;7.014;2023-04-12T12:02:11;6.67;;;3.67;;
6755;SDS011;3415;51.148;7.014;2023-04-12T12:04:39;6.77;;;3.50;;
6755;SDS011;3415;51.148;7.014;2023-04-12T12:07:08;7.47;;;3.93;;
6755;SDS011;3415;51.148;7.014;2023-04-12T12:09:38;4.90;;;2.07;;
6755;SDS011;3415;51.148;7.014;2023-04-12T12:12:06;4.23;;;3.20;;
6755;SDS011;3415;51.148;7.014;2023-04-12T12:14:33;5.60;;;2.83;;
6755;SDS011;3415;51.148;7.014;2023-04-12T12:17:01;4.37;;;2.90;;
6755;SDS011;3415;51.148;7.014;2023-04-12T12:19:35;6.20;;;3.90;;
6755;SDS011;3415;51.148;7.014;2023-04-12T12:22:15;5.43;;;3.57;;
6755;SDS011;3415;51.148;7.014;2023-04-12T12:24:51;6.50;;;3.30;;
6755;SDS011;3415;51.148;7.014;2023-04-12T12:27:21;5.67;;;3.10;;
6755;SDS011;3415;51.148;7.014;2023-04-12T12:29:49;4.63;;;2.50;;
6755;SDS011;3415;51.148;7.014;2023-04-12T12:32:17;4.70;;;2.37;;
6755;SDS011;3415;51.148;7.014;2023-04-12T12:34:49;3.57;;;2.30;;
6755;SDS011;3415;51.148;7.014;2023-04-12T12:37:22;3.50;;;2.20;;
6755;SDS011;3415;51.148;7.014;2023-04-12T12:40:01;7.83;;;3.10;;
6755;SDS011;3415;51.148;7.014;2023-04-12T12:42:32;9.00;;;2.40;;
6755;SDS011;3415;51.148;7.014;2023-04-12T12:45:01;5.83;;;2.30;;
6755;SDS011;3415;51.148;7.014;2023-04-12T12:47:28;3.53;;;2.20;;
6755;SDS011;3415;51.148;7.014;2023-04-12T12:49:56;4.80;;;2.50;;
6755;SDS011;3415;51.148;7.014;2023-04-12T12:52:23;3.03;;;1.70;;
6755;SDS011;3415;51.148;7.014;2023-04-12T12:54:50;4.13;;;1.90;;
6755;SDS011;3415;51.148;7.014;2023-04-12T12:57:18;6.50;;;2.47;;
6755;SDS011;3415;51.148;7.014;2023-04-12T12:59:45;5.40;;;1.80;;
6755;SDS011;3415;51.148;7.014;2023-04-12T13:02:11;2.83;;;1.70;;
6755;SDS011;3415;51.148;7.014;2023-04-12T13:04:39;6.90;;;2.03;;
6755;SDS011;3415;51.148;7.014;2023-04-12T13:07:06;6.00;;;1.80;;
6755;SDS011;3415;51.148;7.014;2023-04-12T13:09:33;8.10;;;2.00;;
6755;SDS011;3415;51.148;7.014;2023-04-12T13:12:00;7.80;;;1.77;;
6755;SDS011;3415;51.148;7.014;2023-04-12T13:14:28;5.73;;;1.90;;
6755;SDS011;3415;51.148;7.014;2023-04-12T13:16:55;4.67;;;2.00;;
6755;SDS011;3415;51.148;7.014;2023-04-12T13:19:22;5.77;;;1.60;;
6755;SDS011;3415;51.148;7.014;2023-04-12T13:21:49;5.33;;;2.17;;
6755;SDS011;3415;51.148;7.014;2023-04-12T13:24:16;5.20;;;2.00;;
6755;SDS011;3415;51.148;7.014;2023-04-12T13:26:43;4.20;;;1.80;;
6755;SDS011;3415;51.148;7.014;2023-04-12T13:29:10;7.87;;;1.57;;
6755;SDS011;3415;51.148;7.014;2023-04-12T13:31:38;5.70;;;1.97;;
6755;SDS011;3415;51.148;7.014;2023-04-12T13:34:05;7.70;;;1.83;;
6755;SDS011;3415;51.148;7.014;2023-04-12T13:36:32;6.10;;;1.80;;
6755;SDS011;3415;51.148;7.014;2023-04-12T13:38:58;11.07;;;1.97;;
6755;SDS011;3415;51.148;7.014;2023-04-12T13:41:25;3.40;;;1.37;;
6755;SDS011;3415;51.148;7.014;2023-04-12T13:43:55;5.30;;;1.60;;
6755;SDS011;3415;51.148;7.014;2023-04-12T13:46:22;8.73;;;2.20;;
6755;SDS011;3415;51.148;7.014;2023-04-12T13:48:50;6.33;;;1.80;;
6755;SDS011;3415;51.148;7.014;2023-04-12T13:51:17;7.60;;;1.67;;
6755;SDS011;3415;51.148;7.014;2023-04-12T13:53:43;5.57;;;1.67;;
6755;SDS011;3415;51.148;7.014;2023-04-12T13:56:10;7.67;;;1.67;;
6755;SDS011;3415;51.148;7.014;2023-04-12T13:58:37;4.90;;;1.20;;
6755;SDS011;3415;51.148;7.014;2023-04-12T14:01:04;5.30;;;1.47;;
6755;SDS011;3415;51.148;7.014;2023-04-12T14:03:31;5.90;;;1.73;;
6755;SDS011;3415;51.148;7.014;2023-04-12T14:06:00;5.33;;;1.23;;
6755;SDS011;3415;51.148;7.014;2023-04-12T14:08:27;13.67;;;2.10;;
6755;SDS011;3415;51.148;7.014;2023-04-12T14:10:54;4.47;;;1.60;;
6755;SDS011;3415;51.148;7.014;2023-04-12T14:13:21;5.27;;;1.37;;
6755;SDS011;3415;51.148;7.014;2023-04-12T14:15:49;3.43;;;1.57;;
6755;SDS011;3415;51.148;7.014;2023-04-12T14:18:16;8.00;;;1.60;;
6755;SDS011;3415;51.148;7.014;2023-04-12T14:20:44;4.03;;;1.47;;
6755;SDS011;3415;51.148;7.014;2023-04-12T14:23:15;2.57;;;1.50;;
6755;SDS011;3415;51.148;7.014;2023-04-12T14:25:42;6.20;;;1.43;;
6755;SDS011;3415;51.148;7.014;2023-04-12T14:28:09;6.87;;;1.80;;
6755;SDS011;3415;51.148;7.014;2023-04-12T14:30:40;5.40;;;1.53;;
6755;SDS011;3415;51.148;7.014;2023-04-12T14:33:07;2.10;;;1.27;;
6755;SDS011;3415;51.148;7.014;2023-04-12T14:35:34;2.10;;;0.93;;
6755;SDS011;3415;51.148;7.014;2023-04-12T14:38:01;2.10;;;0.93;;
6755;SDS011;3415;51.148;7.014;2023-04-12T14:40:30;2.73;;;1.20;;
6755;SDS011;3415;51.148;7.014;2023-04-12T14:42:56;2.53;;;1.20;;
6755;SDS011;3415;51.148;7.014;2023-04-12T14:45:23;8.40;;;1.40;;
6755;SDS011;3415;51.148;7.014;2023-04-12T14:47:51;3.20;;;1.10;;
6755;SDS011;3415;51.148;7.014;2023-04-12T14:50:18;2.87;;;1.20;;
6755;SDS011;3415;51.148;7.014;2023-04-12T14:52:45;4.20;;;1.20;;
6755;SDS011;3415;51.148;7.014;2023-04-12T14:55:12;3.87;;;1.37;;
6755;SDS011;3415;51.148;7.014;2023-04-12T14:57:42;6.57;;;1.53;;
6755;SDS011;3415;51.148;7.014;2023-04-12T15:00:09;4.00;;;0.93;;
6755;SDS011;3415;51.148;7.014;2023-04-12T15:02:39;5.60;;;1.13;;
6755;SDS011;3415;51.148;7.014;2023-04-12T15:05:08;1.70;;;1.00;;
6755;SDS011;3415;51.148;7.014;2023-04-12T15:07:35;2.47;;;0.90;;
6755;SDS011;3415;51.148;7.014;2023-04-12T15:10:02;4.27;;;1.30;;
6755;SDS011;3415;51.148;7.014;2023-04-12T15:12:30;3.60;;;1.27;;
6755;SDS011;3415;51.148;7.014;2023-04-12T15:15:00;6.80;;;1.70;;
6755;SDS011;3415;51.148;7.014;2023-04-12T15:17:27;2.43;;;1.27;;
6755;SDS011;3415;51.148;7.014;2023-04-12T15:19:56;3.53;;;1.30;;
6755;SDS011;3415;51.148;7.014;2023-04-12T15:22:23;2.73;;;1.60;;
6755;SDS011;3415;51.148;7.014;2023-04-12T15:24:50;8.33;;;3.07;;